createdAt,value
2022-10-20T00:04:13.049Z,8.93
2022-10-20T00:09:14.918Z,12.20
2022-10-20T00:14:16.655Z,10.55
2022-10-20T00:19:18.647Z,8.70
2022-10-20T00:24:21.659Z,7.67
2022-10-20T00:29:23.539Z,8.20
2022-10-20T00:34:25.347Z,8.17
2022-10-20T00:39:27.121Z,8.43
2022-10-20T00:44:58.381Z,8.95
2022-10-20T00:50:08.809Z,8.65
2022-10-20T00:55:14.066Z,7.00
2022-10-20T01:00:17.024Z,7.70
2022-10-20T01:05:19.639Z,9.55
2022-10-20T01:10:26.014Z,8.35
2022-10-20T01:15:45.929Z,7.25
2022-10-20T01:21:05.113Z,8.45
2022-10-20T01:26:07.947Z,9.98
2022-10-20T01:31:26.605Z,7.15
2022-10-20T01:36:37.386Z,7.60
2022-10-20T01:41:49.508Z,9.33
2022-10-20T01:46:52.953Z,7.17
2022-10-20T01:51:56.257Z,7.47
2022-10-20T01:57:11.247Z,7.50
2022-10-20T02:02:22.233Z,6.50
2022-10-20T02:07:29.400Z,6.63
2022-10-20T02:12:36.444Z,6.53
2022-10-20T02:17:40.681Z,7.07
2022-10-20T02:22:43.382Z,7.30
2022-10-20T02:27:47.971Z,9.17
2022-10-20T02:32:52.849Z,7.60
2022-10-20T02:37:54.703Z,7.23
2022-10-20T02:42:56.639Z,6.97
2022-10-20T02:47:58.687Z,7.90
2022-10-20T02:53:00.485Z,7.07
2022-10-20T02:58:02.297Z,10.27
2022-10-20T03:03:04.313Z,6.57
2022-10-20T03:08:06.068Z,7.40
2022-10-20T03:13:07.900Z,8.03
2022-10-20T03:18:09.682Z,8.43
2022-10-20T03:23:12.521Z,9.50
2022-10-20T03:28:15.883Z,9.77
2022-10-20T03:33:17.654Z,7.80
2022-10-20T03:38:19.419Z,7.60
2022-10-20T03:43:21.371Z,7.60
2022-10-20T03:48:23.279Z,7.57
2022-10-20T03:53:25.109Z,8.53
2022-10-20T03:58:26.952Z,8.07
2022-10-20T04:03:28.703Z,8.37
2022-10-20T04:08:30.475Z,9.87
2022-10-20T04:13:32.497Z,10.40
2022-10-20T04:18:34.283Z,10.57
2022-10-20T04:23:36.096Z,8.77
2022-10-20T04:28:38.010Z,9.27
2022-10-20T04:33:39.782Z,8.80
2022-10-20T04:38:41.588Z,10.07
2022-10-20T04:43:43.340Z,9.77
2022-10-20T04:48:45.865Z,10.73
2022-10-20T04:53:48.382Z,8.87
2022-10-20T04:58:55.925Z,9.43
2022-10-20T05:03:57.886Z,10.70
2022-10-20T05:09:06.545Z,9.40
2022-10-20T05:14:08.568Z,12.67
2022-10-20T05:19:11.485Z,12.20
2022-10-20T05:24:20.897Z,11.70
2022-10-20T05:29:24.442Z,12.03
2022-10-20T05:34:26.241Z,10.57
2022-10-20T05:39:28.050Z,12.23
2022-10-20T05:44:29.947Z,9.83
2022-10-20T05:49:31.725Z,11.57
2022-10-20T05:54:33.575Z,12.70
2022-10-20T05:59:35.379Z,11.23
2022-10-20T06:04:37.239Z,11.73
2022-10-20T06:09:39.876Z,12.93
2022-10-20T06:14:41.644Z,11.60
2022-10-20T06:19:43.355Z,13.90
2022-10-20T06:24:45.262Z,11.47
2022-10-20T06:29:47.033Z,14.47
2022-10-20T06:34:48.799Z,13.47
2022-10-20T06:39:50.553Z,13.93
2022-10-20T06:44:52.298Z,13.37
2022-10-20T06:49:54.055Z,19.73
2022-10-20T06:54:55.834Z,16.30
2022-10-20T06:59:57.602Z,16.37
2022-10-20T07:04:59.415Z,16.38
2022-10-20T07:10:01.194Z,17.00
2022-10-20T07:15:03.175Z,18.30
2022-10-20T07:20:05.471Z,22.10
2022-10-20T07:25:08.004Z,18.33
2022-10-20T07:30:10.183Z,18.70
2022-10-20T07:35:11.958Z,18.75
2022-10-20T07:40:13.907Z,20.35
2022-10-20T07:45:15.841Z,17.55
2022-10-20T07:50:18.031Z,14.85
2022-10-20T07:55:37.590Z,15.45
2022-10-20T08:05:42.429Z,11.23
2022-10-20T08:10:44.255Z,8.98
2022-10-20T08:15:54.067Z,7.90
2022-10-20T08:21:16.415Z,8.18
2022-10-20T08:26:23.795Z,7.47
2022-10-20T08:31:25.649Z,8.70
2022-10-20T08:36:30.261Z,7.45
2022-10-20T08:41:55.293Z,8.65
2022-10-20T08:47:01.404Z,8.10
2022-10-20T08:52:03.359Z,8.27
2022-10-20T08:57:21.410Z,9.20
2022-10-20T09:02:23.519Z,10.60
2022-10-20T09:07:28.273Z,11.15
2022-10-20T09:12:32.378Z,10.75
2022-10-20T09:17:35.155Z,11.75
2022-10-20T09:22:37.153Z,10.93
2022-10-20T09:27:43.004Z,11.40
2022-10-20T09:32:46.979Z,11.50
2022-10-20T09:38:03.685Z,11.82
2022-10-20T09:43:15.484Z,11.93
2022-10-20T09:48:24.172Z,11.82
2022-10-20T09:53:35.666Z,12.05
2022-10-20T09:58:39.478Z,11.70
2022-10-20T10:03:45.446Z,12.05
2022-10-20T10:08:48.028Z,11.60
2022-10-20T10:13:52.348Z,12.13
2022-10-20T10:19:02.014Z,12.82
2022-10-20T10:24:04.886Z,12.70
2022-10-20T10:29:17.900Z,12.52
2022-10-20T10:34:19.674Z,12.68
2022-10-20T10:39:21.494Z,12.85
2022-10-20T10:44:58.065Z,12.75
2022-10-20T10:50:21.073Z,12.18
2022-10-20T10:55:50.795Z,12.55
2022-10-20T11:00:52.593Z,11.85
2022-10-20T11:06:29.464Z,11.32
2022-10-20T11:11:44.382Z,11.02
2022-10-20T11:17:03.365Z,11.50
2022-10-20T11:22:26.831Z,12.27
2022-10-20T11:27:34.065Z,12.00
2022-10-20T11:32:42.111Z,11.75
2022-10-20T11:38:25.698Z,11.98
2022-10-20T11:43:37.229Z,11.68
2022-10-20T11:48:49.602Z,12.77
2022-10-20T11:54:26.813Z,12.20
2022-10-20T11:59:48.190Z,11.80
2022-10-20T12:04:49.957Z,11.82
2022-10-20T12:10:42.844Z,11.63
2022-10-20T12:15:50.140Z,11.35
2022-10-20T12:20:56.424Z,12.48
2022-10-20T12:25:58.222Z,12.32
2022-10-20T12:31:02.678Z,12.15
2022-10-20T12:36:16.470Z,12.40
2022-10-20T12:41:30.469Z,12.18
2022-10-20T12:46:34.154Z,12.13
2022-10-20T12:51:41.262Z,13.10
2022-10-20T12:56:43.769Z,13.07
2022-10-20T13:02:11.074Z,13.10
2022-10-20T13:07:12.858Z,12.35
2022-10-20T13:12:26.993Z,13.00
2022-10-20T13:18:06.131Z,13.10
2022-10-20T13:23:23.204Z,14.85
2022-10-20T13:28:30.926Z,14.20
2022-10-20T13:34:14.113Z,14.25
2022-10-20T13:39:24.965Z,14.35
2022-10-20T13:44:45.653Z,14.90
2022-10-20T13:50:10.315Z,14.70
2022-10-20T13:55:20.285Z,14.50
2022-10-20T14:00:28.511Z,15.00
2022-10-20T14:05:37.881Z,15.57
2022-10-20T14:10:48.233Z,15.18
2022-10-20T14:15:59.178Z,15.57
2022-10-20T14:21:15.697Z,15.70
2022-10-20T14:26:20.287Z,14.38
2022-10-20T14:31:24.250Z,15.18
2022-10-20T14:36:28.984Z,14.77
2022-10-20T14:41:33.585Z,15.57
2022-10-20T14:46:39.330Z,15.30
2022-10-20T14:51:47.726Z,15.80
2022-10-20T14:56:59.467Z,16.02
2022-10-20T15:02:10.373Z,16.40
2022-10-20T15:07:28.130Z,16.20
2022-10-20T15:12:36.167Z,16.60
2022-10-20T15:17:39.725Z,15.57
2022-10-20T15:22:42.610Z,16.40
2022-10-20T15:27:44.520Z,17.10
2022-10-20T15:32:46.579Z,16.60
2022-10-20T15:37:53.114Z,16.90
2022-10-20T15:42:55.044Z,15.82
2022-10-20T15:47:56.824Z,17.42
2022-10-20T15:52:58.593Z,17.92
2022-10-20T15:58:00.804Z,18.35
2022-10-20T16:03:02.776Z,18.75
2022-10-20T16:08:04.887Z,18.33
2022-10-20T16:13:06.744Z,17.15
2022-10-20T16:18:09.865Z,19.02
2022-10-20T16:23:11.968Z,18.45
2022-10-20T16:28:13.749Z,17.92
2022-10-20T16:33:15.590Z,19.20
2022-10-20T16:38:17.358Z,18.52
2022-10-20T16:43:19.162Z,18.05
2022-10-20T16:48:21.740Z,19.08
2022-10-20T16:53:24.144Z,18.27
2022-10-20T16:58:26.090Z,18.60
2022-10-20T17:03:28.085Z,19.75
2022-10-20T17:08:32.093Z,19.48
2022-10-20T17:13:34.607Z,17.35
2022-10-20T17:18:36.860Z,17.20
2022-10-20T17:23:42.685Z,16.90
2022-10-20T17:28:45.244Z,17.33
2022-10-20T17:33:47.351Z,19.80
2022-10-20T17:38:53.684Z,19.10
2022-10-20T17:43:55.458Z,20.35
2022-10-20T17:48:57.320Z,19.23
2022-10-20T17:53:59.113Z,21.15
2022-10-20T17:59:04.757Z,16.85
2022-10-20T18:04:12.950Z,16.65
2022-10-20T18:09:18.001Z,16.17
2022-10-20T18:14:19.990Z,18.33
2022-10-20T18:19:21.888Z,16.27
2022-10-20T18:24:23.837Z,15.77
2022-10-20T18:29:26.110Z,20.35
2022-10-20T18:34:27.909Z,15.43
2022-10-20T18:39:31.818Z,15.02
2022-10-20T18:44:33.865Z,13.07
2022-10-20T18:49:35.676Z,14.38
2022-10-20T18:54:38.314Z,13.98
2022-10-20T18:59:40.104Z,13.05
2022-10-20T19:04:41.893Z,16.40
2022-10-20T19:09:43.632Z,18.92
2022-10-20T19:14:45.453Z,19.98
2022-10-20T19:19:47.201Z,17.98
2022-10-20T19:24:48.941Z,19.60
2022-10-20T19:29:50.737Z,17.98
2022-10-20T19:34:52.502Z,16.15
2022-10-20T19:39:54.231Z,16.60
2022-10-20T19:44:55.992Z,19.88
2022-10-20T19:49:57.822Z,17.23
2022-10-20T19:55:01.313Z,13.75
2022-10-20T20:00:04.420Z,13.20
2022-10-20T20:05:06.474Z,13.80
2022-10-20T20:10:10.184Z,11.82
2022-10-20T20:15:11.957Z,15.32
2022-10-20T20:20:13.744Z,13.25
2022-10-20T20:25:15.725Z,12.43
2022-10-20T20:30:17.463Z,14.52
2022-10-20T20:35:19.202Z,14.05
2022-10-20T20:40:21.278Z,33.20
2022-10-20T20:45:23.063Z,41.72
2022-10-20T20:50:24.798Z,14.48
2022-10-20T20:55:26.534Z,14.10
2022-10-20T21:00:28.479Z,12.77
2022-10-20T21:05:30.296Z,13.02
2022-10-20T21:10:32.362Z,12.00
2022-10-20T21:15:34.212Z,12.48
2022-10-20T21:20:35.957Z,11.82
2022-10-20T21:25:37.718Z,12.38
2022-10-20T21:30:40.369Z,12.38
2022-10-20T21:35:42.158Z,11.57
2022-10-20T21:40:43.936Z,12.07
2022-10-20T21:45:45.702Z,11.43
2022-10-20T21:50:47.550Z,10.13
2022-10-20T21:55:49.303Z,10.75
2022-10-20T22:00:54.036Z,10.57
2022-10-20T22:05:55.865Z,11.48
2022-10-20T22:11:02.428Z,12.23
2022-10-20T22:16:13.740Z,12.30
2022-10-20T22:21:17.811Z,10.98
2022-10-20T22:26:19.602Z,11.13
2022-10-20T22:31:23.089Z,12.48
2022-10-20T22:36:26.205Z,11.38
2022-10-20T22:41:27.992Z,10.43
2022-10-20T22:46:29.814Z,10.23
2022-10-20T22:51:31.600Z,10.73
2022-10-20T22:56:33.454Z,11.48
2022-10-20T23:01:35.293Z,11.25
2022-10-20T23:06:37.198Z,11.93
2022-10-20T23:11:38.958Z,11.52
2022-10-20T23:16:40.706Z,11.43
2022-10-20T23:21:42.545Z,11.32
2022-10-20T23:26:44.376Z,10.23
2022-10-20T23:31:46.142Z,12.90
2022-10-20T23:36:47.998Z,11.45
2022-10-20T23:41:49.776Z,10.80
2022-10-20T23:46:52.091Z,10.13
2022-10-20T23:51:53.906Z,10.30
2022-10-20T23:56:55.718Z,11.95
